createdAt,value
2019-04-25T00:12:33.471Z,60.84
2019-04-25T00:27:44.357Z,61.11
2019-04-25T00:42:52.228Z,61.20
2019-04-25T00:58:01.378Z,61.61
2019-04-25T01:13:11.339Z,62.31
2019-04-25T01:28:19.172Z,63.09
2019-04-25T01:43:29.124Z,63.64
2019-04-25T01:58:36.808Z,63.74
2019-04-25T02:13:44.111Z,64.09
2019-04-25T02:28:50.995Z,64.52
2019-04-25T02:44:01.387Z,65.07
2019-04-25T02:59:09.118Z,65.26
2019-04-25T03:14:17.462Z,65.68
2019-04-25T03:29:26.128Z,65.97
2019-04-25T03:44:33.975Z,66.19
2019-04-25T03:59:40.864Z,65.94
2019-04-25T04:14:47.787Z,66.60
2019-04-25T04:29:54.822Z,66.50
2019-04-25T04:45:03.550Z,65.54
2019-04-25T05:00:11.129Z,65.67
2019-04-25T05:15:19.435Z,64.01
2019-04-25T05:30:37.970Z,59.49
2019-04-25T05:45:44.601Z,55.24
2019-04-25T06:00:52.382Z,52.40
2019-04-25T06:16:01.012Z,51.44
2019-04-25T06:31:10.366Z,50.02
2019-04-25T06:46:36.505Z,50.21
2019-04-25T07:01:44.048Z,48.80
2019-04-25T07:16:51.092Z,48.35
2019-04-25T07:32:07.893Z,45.71
2019-04-25T07:47:19.886Z,42.51
2019-04-25T08:02:28.108Z,41.53
2019-04-25T08:17:46.985Z,40.52
2019-04-25T08:32:54.482Z,38.70
2019-04-25T08:48:03.714Z,38.15
2019-04-25T09:03:17.645Z,35.67
2019-04-25T09:18:25.910Z,35.24
2019-04-25T09:33:46.725Z,33.15
2019-04-25T09:48:54.303Z,32.19
2019-04-25T10:04:02.219Z,32.61
2019-04-25T10:19:09.243Z,32.77
2019-04-25T10:34:16.345Z,30.89
2019-04-25T10:49:23.658Z,30.00
2019-04-25T11:04:33.086Z,27.85
2019-04-25T11:19:40.107Z,27.60
2019-04-25T11:34:48.878Z,28.10
2019-04-25T11:49:56.936Z,28.78
2019-04-25T12:05:05.121Z,27.54
2019-04-25T12:20:14.131Z,26.72
2019-04-25T12:35:21.130Z,25.88
2019-04-25T12:50:28.677Z,26.45
2019-04-25T13:05:35.829Z,26.05
2019-04-25T13:20:43.887Z,26.60
2019-04-25T13:35:57.627Z,25.97
2019-04-25T13:51:05.529Z,26.18
2019-04-25T14:06:13.693Z,26.24
2019-04-25T14:21:23.797Z,26.70
2019-04-25T14:36:30.756Z,27.48
2019-04-25T14:51:38.551Z,27.64
2019-04-25T15:06:45.678Z,27.69
2019-04-25T15:21:52.742Z,28.03
2019-04-25T15:37:06.763Z,28.74
2019-04-25T15:52:15.214Z,29.01
2019-04-25T16:07:22.358Z,30.11
2019-04-25T16:22:30.222Z,29.85
2019-04-25T16:37:37.958Z,30.67
2019-04-25T16:52:45.461Z,31.58
2019-04-25T17:07:52.021Z,32.96
2019-04-25T17:22:59.492Z,33.98
2019-04-25T17:38:19.393Z,35.11
2019-04-25T17:53:26.500Z,36.06
2019-04-25T18:08:33.405Z,39.08
2019-04-25T18:23:53.433Z,41.63
2019-04-25T18:39:14.787Z,44.82
2019-04-25T18:54:23.708Z,46.92
2019-04-25T19:09:30.693Z,48.56
2019-04-25T19:24:37.904Z,50.34
2019-04-25T19:39:47.284Z,51.38
2019-04-25T19:54:56.664Z,54.48
2019-04-25T20:10:05.926Z,55.37
2019-04-25T20:25:13.275Z,56.60
2019-04-25T20:40:20.081Z,57.68
2019-04-25T20:55:26.949Z,58.14
2019-04-25T21:10:35.505Z,60.43
2019-04-25T21:25:43.382Z,60.08
2019-04-25T21:40:57.909Z,61.14
2019-04-25T21:56:05.472Z,62.57
2019-04-25T22:11:13.354Z,61.64
2019-04-25T22:26:20.775Z,62.06
2019-04-25T22:41:29.937Z,62.79
2019-04-25T22:56:36.794Z,63.52
2019-04-25T23:11:44.438Z,64.35
2019-04-25T23:26:59.381Z,64.34
2019-04-25T23:42:06.138Z,64.49
2019-04-25T23:57:15.419Z,64.85
